createdAt,value
2019-01-19T00:02:02.288Z,60.42
2019-01-19T00:05:24.456Z,60.39
2019-01-19T00:08:16.779Z,59.73
2019-01-19T00:11:21.568Z,59.69
2019-01-19T00:14:28.386Z,59.10
2019-01-19T00:17:40.648Z,58.79
2019-01-19T00:20:51.066Z,59.88
2019-01-19T00:23:57.096Z,61.16
2019-01-19T00:27:12.099Z,62.86
2019-01-19T00:30:07.608Z,62.02
2019-01-19T00:33:01.196Z,63.74
2019-01-19T00:35:56.033Z,66.34
2019-01-19T00:38:59.672Z,70.29
2019-01-19T00:42:03.391Z,73.03
2019-01-19T00:44:44.696Z,73.73
2019-01-19T00:48:01.340Z,75.58
2019-01-19T00:51:13.143Z,75.27
2019-01-19T00:54:14.694Z,73.84
2019-01-19T00:57:10.254Z,71.47
2019-01-19T00:59:44.196Z,68.48
2019-01-19T01:02:38.352Z,66.49
2019-01-19T01:05:38.368Z,65.74
2019-01-19T01:08:57.975Z,64.00
2019-01-19T01:11:57.092Z,64.97
2019-01-19T01:15:06.441Z,62.71
2019-01-19T01:17:53.792Z,63.52
2019-01-19T01:21:28.135Z,60.40
2019-01-19T01:24:39.820Z,60.94
2019-01-19T01:27:38.701Z,59.43
2019-01-19T01:30:33.426Z,60.33
2019-01-19T01:33:42.848Z,58.98
2019-01-19T01:36:56.143Z,58.24
2019-01-19T01:40:15.716Z,58.27
2019-01-19T01:43:11.678Z,58.48
2019-01-19T01:46:30.767Z,57.73
2019-01-19T01:49:28.393Z,58.27
2019-01-19T01:52:46.168Z,58.47
2019-01-19T01:55:36.534Z,58.05
2019-01-19T01:58:42.832Z,58.85
2019-01-19T02:01:37.228Z,58.38
2019-01-19T02:04:53.823Z,58.20
2019-01-19T02:08:00.830Z,58.92
2019-01-19T02:10:37.479Z,57.17
2019-01-19T02:13:32.922Z,60.88
2019-01-19T02:16:52.183Z,60.80
2019-01-19T02:19:55.825Z,63.03
2019-01-19T02:23:09.329Z,64.94
2019-01-19T02:26:37.877Z,61.67
2019-01-19T02:30:00.215Z,66.64
2019-01-19T02:33:19.196Z,69.10
2019-01-19T02:36:30.912Z,70.72
2019-01-19T02:39:48.207Z,75.17
2019-01-19T02:43:06.751Z,75.42
2019-01-19T02:46:10.089Z,74.36
2019-01-19T02:49:20.370Z,73.48
2019-01-19T02:52:10.339Z,73.46
2019-01-19T02:55:29.520Z,73.44
2019-01-19T02:58:30.343Z,73.59
2019-01-19T03:01:40.774Z,73.14
2019-01-19T03:04:43.417Z,72.79
2019-01-19T03:08:14.878Z,71.11
2019-01-19T03:11:20.552Z,70.16
2019-01-19T03:14:29.639Z,68.74
2019-01-19T03:17:52.212Z,68.56
2019-01-19T03:20:45.925Z,68.92
2019-01-19T03:23:47.194Z,67.59
2019-01-19T03:26:41.571Z,66.42
2019-01-19T03:29:28.620Z,65.47
2019-01-19T03:32:21.880Z,67.21
2019-01-19T03:35:12.102Z,65.70
2019-01-19T03:38:03.691Z,64.30
2019-01-19T03:41:20.194Z,62.75
2019-01-19T03:44:36.762Z,62.79
2019-01-19T03:47:47.326Z,61.55
2019-01-19T03:50:55.973Z,62.35
2019-01-19T03:53:57.884Z,62.15
2019-01-19T03:57:20.316Z,61.70
2019-01-19T04:00:07.361Z,61.77
2019-01-19T04:03:22.710Z,62.08
2019-01-19T04:06:42.048Z,62.83
2019-01-19T04:09:40.342Z,64.25
2019-01-19T04:13:08.841Z,63.56
2019-01-19T04:16:17.692Z,63.97
2019-01-19T04:19:34.024Z,67.51
2019-01-19T04:22:27.342Z,65.49
2019-01-19T04:25:45.147Z,64.11
2019-01-19T04:28:16.944Z,64.96
2019-01-19T04:30:46.571Z,65.08
2019-01-19T04:33:16.198Z,64.63
2019-01-19T04:35:45.863Z,63.59
2019-01-19T04:38:15.488Z,63.88
2019-01-19T04:40:45.096Z,64.49
2019-01-19T04:43:14.896Z,64.99
2019-01-19T04:45:44.526Z,63.82
2019-01-19T04:48:14.713Z,63.53
2019-01-19T04:50:44.389Z,64.87
2019-01-19T04:53:14.011Z,62.35
2019-01-19T04:55:43.656Z,60.11
2019-01-19T04:58:13.334Z,58.02
2019-01-19T05:00:42.973Z,59.75
2019-01-19T05:03:12.593Z,61.47
2019-01-19T05:05:42.333Z,61.51
2019-01-19T05:08:11.988Z,62.02
2019-01-19T05:10:41.656Z,64.17
2019-01-19T05:13:11.336Z,64.81
2019-01-19T05:15:40.970Z,64.99
2019-01-19T05:18:10.853Z,65.27
2019-01-19T05:20:40.596Z,66.15
2019-01-19T05:23:10.828Z,65.75
2019-01-19T05:25:40.489Z,65.88
2019-01-19T05:28:10.145Z,66.64
2019-01-19T05:30:39.790Z,66.42
2019-01-19T05:33:09.410Z,68.13
2019-01-19T05:35:39.122Z,69.34
2019-01-19T05:38:08.797Z,67.76
2019-01-19T05:40:38.428Z,68.61
2019-01-19T05:43:08.203Z,68.81
2019-01-19T05:45:37.867Z,68.73
2019-01-19T05:48:07.494Z,68.03
2019-01-19T05:50:37.183Z,68.29
2019-01-19T05:53:06.816Z,69.28
2019-01-19T05:55:36.587Z,69.55
2019-01-19T05:58:06.267Z,67.97
2019-01-19T06:00:36.868Z,65.95
2019-01-19T06:03:07.034Z,84.31
2019-01-19T06:05:38.488Z,71.73
2019-01-19T06:08:08.181Z,76.06
2019-01-19T06:10:37.798Z,81.36
2019-01-19T06:13:07.489Z,80.61
2019-01-19T06:15:37.160Z,78.63
2019-01-19T06:18:07.044Z,73.93
2019-01-19T06:20:36.750Z,74.95
2019-01-19T06:23:06.506Z,70.02
2019-01-19T06:25:36.127Z,69.34
2019-01-19T06:28:06.016Z,71.47
2019-01-19T06:30:35.677Z,69.78
2019-01-19T06:33:05.547Z,64.79
2019-01-19T06:35:35.265Z,63.48
2019-01-19T06:38:04.923Z,68.57
2019-01-19T06:40:34.834Z,67.16
2019-01-19T06:43:04.757Z,65.30
2019-01-19T06:45:34.371Z,67.57
2019-01-19T06:48:04.124Z,68.42
2019-01-19T06:50:33.817Z,68.29
2019-01-19T06:53:03.453Z,69.57
2019-01-19T06:55:35.338Z,80.75
2019-01-19T06:58:05.179Z,72.45
2019-01-19T07:00:34.828Z,74.86
2019-01-19T07:03:04.605Z,72.91
2019-01-19T07:05:34.346Z,74.38
2019-01-19T07:08:03.985Z,72.73
2019-01-19T07:10:33.657Z,70.70
2019-01-19T07:13:03.486Z,72.84
2019-01-19T07:15:33.582Z,67.25
2019-01-19T07:18:03.303Z,63.33
2019-01-19T07:20:33.044Z,67.72
2019-01-19T07:23:02.720Z,68.39
2019-01-19T07:25:32.360Z,70.60
2019-01-19T07:28:02.120Z,66.01
2019-01-19T07:30:31.722Z,66.04
2019-01-19T07:33:01.354Z,66.83
2019-01-19T07:35:31.043Z,67.61
2019-01-19T07:38:00.690Z,69.90
2019-01-19T07:40:30.360Z,71.48
2019-01-19T07:43:03.770Z,68.63
2019-01-19T07:45:33.411Z,66.34
2019-01-19T07:48:03.401Z,65.82
2019-01-19T07:50:33.238Z,64.59
2019-01-19T07:53:02.919Z,63.27
2019-01-19T07:55:32.561Z,64.05
2019-01-19T07:58:02.281Z,78.13
2019-01-19T08:00:32.850Z,94.71
2019-01-19T08:03:02.700Z,96.63
2019-01-19T08:05:32.435Z,93.51
2019-01-19T08:08:02.047Z,71.43
2019-01-19T08:10:31.675Z,65.04
2019-01-19T08:13:01.407Z,80.68
2019-01-19T08:15:31.248Z,68.58
2019-01-19T08:18:00.929Z,60.30
2019-01-19T08:20:30.746Z,57.35
2019-01-19T08:23:00.382Z,60.74
2019-01-19T08:25:30.031Z,60.91
2019-01-19T08:28:01.314Z,60.85
2019-01-19T08:30:31.647Z,59.39
2019-01-19T08:33:01.243Z,61.03
2019-01-19T08:35:31.460Z,61.37
2019-01-19T08:38:01.056Z,59.91
2019-01-19T08:40:33.106Z,62.29
2019-01-19T08:43:24.684Z,61.38
2019-01-19T08:45:54.344Z,58.91
2019-01-19T08:48:24.158Z,59.21
2019-01-19T08:50:53.912Z,60.58
2019-01-19T08:53:23.541Z,59.57
2019-01-19T08:55:53.310Z,58.92
2019-01-19T08:58:23.097Z,54.20
2019-01-19T09:00:52.751Z,55.64
2019-01-19T09:03:22.370Z,55.44
2019-01-19T09:05:52.172Z,56.52
2019-01-19T09:08:21.834Z,54.67
2019-01-19T09:10:51.477Z,55.97
2019-01-19T09:13:21.268Z,56.89
2019-01-19T09:15:52.005Z,57.27
2019-01-19T09:18:21.639Z,57.21
2019-01-19T09:20:51.388Z,61.08
2019-01-19T09:23:25.107Z,60.26
2019-01-19T09:25:54.820Z,60.92
2019-01-19T09:28:24.435Z,59.09
2019-01-19T09:30:54.143Z,57.44
2019-01-19T09:33:23.956Z,67.94
2019-01-19T09:35:53.574Z,59.53
2019-01-19T09:38:23.213Z,57.40
2019-01-19T09:40:53.155Z,54.33
2019-01-19T09:43:22.790Z,53.37
2019-01-19T09:45:52.419Z,52.67
2019-01-19T09:48:22.184Z,52.24
2019-01-19T09:50:51.790Z,51.93
2019-01-19T09:53:21.424Z,50.76
2019-01-19T09:55:51.087Z,52.79
2019-01-19T09:58:20.731Z,50.75
2019-01-19T10:00:50.387Z,50.37
2019-01-19T10:03:20.043Z,50.33
2019-01-19T10:05:49.654Z,49.12
2019-01-19T10:08:19.254Z,51.82
2019-01-19T10:10:49.077Z,49.86
2019-01-19T10:13:18.676Z,48.72
2019-01-19T10:15:48.300Z,49.54
2019-01-19T10:18:18.633Z,49.66
2019-01-19T10:20:48.432Z,67.48
2019-01-19T10:23:18.161Z,52.91
2019-01-19T10:25:47.839Z,49.57
2019-01-19T10:28:17.513Z,48.95
2019-01-19T10:30:47.162Z,48.55
2019-01-19T10:33:16.837Z,47.46
2019-01-19T10:35:46.433Z,48.93
2019-01-19T10:38:16.048Z,48.91
2019-01-19T10:40:45.748Z,47.13
2019-01-19T10:43:15.383Z,48.86
2019-01-19T10:45:45.027Z,46.96
2019-01-19T10:48:14.940Z,51.58
2019-01-19T10:50:44.550Z,47.33
2019-01-19T10:53:14.232Z,47.42
2019-01-19T10:55:44.005Z,51.91
2019-01-19T10:58:13.671Z,48.89
2019-01-19T11:00:43.309Z,49.94
2019-01-19T11:03:13.069Z,48.51
2019-01-19T11:05:42.696Z,48.43
2019-01-19T11:08:13.631Z,46.17
2019-01-19T11:10:43.343Z,47.29
2019-01-19T11:13:13.089Z,45.38
2019-01-19T11:15:42.705Z,46.17
2019-01-19T11:18:12.410Z,45.59
2019-01-19T11:20:42.032Z,45.76
2019-01-19T11:23:11.656Z,46.90
2019-01-19T11:25:41.414Z,46.62
2019-01-19T11:28:11.059Z,48.42
2019-01-19T11:30:40.688Z,47.70
2019-01-19T11:33:10.372Z,44.89
2019-01-19T11:35:40.043Z,45.55
2019-01-19T11:38:12.104Z,46.53
2019-01-19T11:40:41.111Z,47.37
2019-01-19T11:43:11.630Z,46.70
2019-01-19T11:45:41.233Z,46.30
2019-01-19T11:48:10.866Z,46.97
2019-01-19T11:50:40.588Z,46.79
2019-01-19T11:53:10.206Z,45.30
2019-01-19T11:55:39.919Z,48.65
2019-01-19T11:58:09.520Z,47.81
2019-01-19T12:00:40.458Z,47.41
2019-01-19T12:03:10.270Z,45.16
2019-01-19T12:05:40.564Z,45.02
2019-01-19T12:08:19.211Z,45.13
2019-01-19T12:10:43.222Z,44.31
2019-01-19T12:13:12.979Z,46.95
2019-01-19T12:15:42.614Z,48.45
2019-01-19T12:18:12.357Z,48.75
2019-01-19T12:20:44.473Z,48.61
2019-01-19T12:23:14.124Z,46.54
2019-01-19T12:25:44.038Z,49.38
2019-01-19T12:28:13.758Z,48.30
2019-01-19T12:30:43.379Z,48.68
2019-01-19T12:33:13.273Z,49.66
2019-01-19T12:35:42.913Z,50.09
2019-01-19T12:38:12.585Z,50.16
2019-01-19T12:40:42.277Z,50.13
2019-01-19T12:43:17.532Z,50.74
2019-01-19T12:45:58.055Z,52.48
2019-01-19T12:48:27.703Z,52.85
2019-01-19T12:50:57.476Z,53.66
2019-01-19T12:53:27.611Z,57.46
2019-01-19T12:55:57.252Z,53.00
2019-01-19T12:58:26.870Z,53.44
2019-01-19T13:00:56.608Z,53.95
2019-01-19T13:03:26.531Z,53.16
2019-01-19T13:06:27.240Z,53.18
2019-01-19T13:08:57.092Z,54.12
2019-01-19T13:11:53.785Z,54.56
2019-01-19T13:14:23.579Z,55.42
2019-01-19T13:17:32.639Z,55.55
2019-01-19T13:20:23.493Z,55.04
2019-01-19T13:23:14.671Z,52.49
2019-01-19T13:26:30.666Z,55.17
2019-01-19T13:29:25.715Z,54.59
2019-01-19T13:32:45.230Z,52.18
2019-01-19T13:35:51.486Z,53.42
2019-01-19T13:39:06.970Z,53.11
2019-01-19T13:42:29.672Z,53.13
2019-01-19T13:45:53.753Z,51.09
2019-01-19T13:48:48.037Z,50.48
2019-01-19T13:51:54.634Z,49.96
2019-01-19T13:55:03.431Z,50.63
2019-01-19T13:58:31.945Z,62.45
2019-01-19T14:01:49.765Z,66.90
2019-01-19T14:04:30.167Z,72.97
2019-01-19T14:07:55.762Z,74.96
2019-01-19T14:10:50.594Z,77.78
2019-01-19T14:13:34.269Z,78.40
2019-01-19T14:16:29.374Z,78.50
2019-01-19T14:19:39.776Z,82.19
2019-01-19T14:22:43.868Z,83.49
2019-01-19T14:25:35.700Z,78.55
2019-01-19T14:28:43.578Z,75.45
2019-01-19T14:31:43.573Z,67.16
2019-01-19T14:34:22.219Z,65.79
2019-01-19T14:37:38.547Z,72.29
2019-01-19T14:40:39.058Z,76.59
2019-01-19T14:43:42.161Z,81.42
2019-01-19T14:46:51.085Z,85.71
2019-01-19T14:49:49.439Z,87.04
2019-01-19T14:52:59.645Z,90.43
2019-01-19T14:55:53.444Z,90.83
2019-01-19T14:58:49.709Z,91.21
2019-01-19T15:01:58.543Z,92.32
2019-01-19T15:05:03.655Z,87.25
2019-01-19T15:08:07.191Z,81.11
2019-01-19T15:10:54.128Z,82.04
2019-01-19T15:14:01.784Z,80.12
2019-01-19T15:17:14.478Z,82.04
2019-01-19T15:20:15.664Z,84.33
2019-01-19T15:23:22.127Z,83.59
2019-01-19T15:26:38.190Z,82.93
2019-01-19T15:29:48.808Z,82.72
2019-01-19T15:32:57.847Z,82.82
2019-01-19T15:35:57.001Z,81.88
2019-01-19T15:38:39.397Z,82.91
2019-01-19T15:41:47.167Z,82.29
2019-01-19T15:44:47.680Z,80.00
2019-01-19T15:47:39.624Z,79.53
2019-01-19T15:50:31.183Z,80.83
2019-01-19T15:53:36.376Z,81.10
2019-01-19T15:56:39.436Z,83.15
2019-01-19T16:00:13.731Z,93.12
2019-01-19T16:03:11.663Z,96.03
2019-01-19T16:06:23.739Z,95.04
2019-01-19T16:09:39.080Z,92.02
2019-01-19T16:12:38.232Z,98.13
2019-01-19T16:15:44.513Z,100.00
2019-01-19T16:18:53.642Z,100.00
2019-01-19T16:21:54.171Z,100.00
2019-01-19T16:24:39.539Z,97.65
2019-01-19T16:27:20.700Z,93.53
2019-01-19T16:30:03.527Z,95.29
2019-01-19T16:33:20.019Z,97.59
2019-01-19T16:36:18.291Z,96.12
2019-01-19T16:39:36.460Z,96.60
2019-01-19T16:42:41.113Z,99.16
2019-01-19T16:45:39.456Z,100.00
2019-01-19T16:48:45.149Z,100.00
2019-01-19T16:51:58.565Z,100.00
2019-01-19T16:55:02.302Z,100.00
2019-01-19T16:58:33.657Z,100.00
2019-01-19T17:01:27.463Z,100.00
2019-01-19T17:04:41.489Z,100.00
2019-01-19T17:07:54.511Z,100.00
2019-01-19T17:11:00.783Z,100.00
2019-01-19T17:14:13.494Z,100.00
2019-01-19T17:17:14.503Z,100.00
2019-01-19T17:20:25.277Z,100.00
2019-01-19T17:23:11.601Z,100.00
2019-01-19T17:26:14.974Z,100.00
2019-01-19T17:29:12.035Z,100.00
2019-01-19T17:31:51.009Z,100.00
2019-01-19T17:35:01.512Z,100.00
2019-01-19T17:38:13.651Z,100.00
2019-01-19T17:41:14.084Z,100.00
2019-01-19T17:44:17.534Z,100.00
2019-01-19T17:47:15.051Z,100.00
2019-01-19T17:50:29.083Z,100.00
2019-01-19T17:53:36.906Z,100.00
2019-01-19T17:56:56.675Z,100.00
2019-01-19T17:59:42.315Z,100.00
2019-01-19T18:02:48.604Z,100.00
2019-01-19T18:05:49.753Z,100.00
2019-01-19T18:08:59.888Z,100.00
2019-01-19T18:12:04.991Z,100.00
2019-01-19T18:15:13.501Z,100.00
2019-01-19T18:18:07.780Z,100.00
2019-01-19T18:21:19.760Z,100.00
2019-01-19T18:24:33.065Z,100.00
2019-01-19T18:27:48.883Z,100.00
2019-01-19T18:30:43.619Z,100.00
2019-01-19T18:33:38.412Z,100.00
2019-01-19T18:36:42.669Z,100.00
2019-01-19T18:39:43.841Z,100.00
2019-01-19T18:42:51.777Z,100.00
2019-01-19T18:45:58.636Z,100.00
2019-01-19T18:49:17.821Z,100.00
2019-01-19T18:52:28.532Z,100.00
2019-01-19T18:55:24.631Z,100.00
2019-01-19T18:58:34.831Z,100.00
2019-01-19T19:01:55.583Z,100.00
2019-01-19T19:05:17.623Z,100.00
2019-01-19T19:08:38.560Z,100.00
2019-01-19T19:11:35.723Z,100.00
2019-01-19T19:14:26.612Z,100.00
2019-01-19T19:17:31.560Z,100.00
2019-01-19T19:20:44.585Z,100.00
2019-01-19T19:23:44.145Z,100.00
2019-01-19T19:26:53.414Z,100.00
2019-01-19T19:30:00.223Z,100.00
2019-01-19T19:33:08.493Z,100.00
2019-01-19T19:36:17.447Z,100.00
2019-01-19T19:39:17.562Z,100.00
2019-01-19T19:42:10.686Z,100.00
2019-01-19T19:45:36.063Z,100.00
2019-01-19T19:48:30.363Z,100.00
2019-01-19T19:51:46.677Z,100.00
2019-01-19T19:54:16.463Z,100.00
2019-01-19T19:56:44.244Z,100.00
2019-01-19T19:59:14.001Z,100.00
2019-01-19T20:01:43.677Z,100.00
2019-01-19T20:04:13.388Z,100.00
2019-01-19T20:06:43.056Z,100.00
2019-01-19T20:09:13.051Z,100.00
2019-01-19T20:11:42.749Z,100.00
2019-01-19T20:14:12.709Z,100.00
2019-01-19T20:16:42.557Z,100.00
2019-01-19T20:19:12.232Z,100.00
2019-01-19T20:21:41.908Z,100.00
2019-01-19T20:24:11.681Z,100.00
2019-01-19T20:26:41.390Z,100.00
2019-01-19T20:29:11.087Z,100.00
2019-01-19T20:31:40.753Z,100.00
2019-01-19T20:34:10.410Z,100.00
2019-01-19T20:36:40.207Z,100.00
2019-01-19T20:39:10.864Z,100.00
2019-01-19T20:41:40.570Z,100.00
2019-01-19T20:44:10.293Z,100.00
2019-01-19T20:46:39.964Z,100.00
2019-01-19T20:49:09.635Z,100.00
2019-01-19T20:51:39.345Z,100.00
2019-01-19T20:54:09.052Z,100.00
2019-01-19T20:56:38.708Z,100.00
2019-01-19T20:59:08.460Z,100.00
2019-01-19T21:01:38.146Z,100.00
2019-01-19T21:04:07.855Z,100.00
2019-01-19T21:06:37.591Z,100.00
2019-01-19T21:09:11.726Z,100.00
2019-01-19T21:11:41.421Z,100.00
2019-01-19T21:14:11.154Z,100.00
2019-01-19T21:16:41.006Z,100.00
2019-01-19T21:19:10.838Z,100.00
2019-01-19T21:21:40.488Z,100.00
2019-01-19T21:24:10.165Z,100.00
2019-01-19T21:26:39.822Z,100.00
2019-01-19T21:29:09.477Z,100.00
2019-01-19T21:31:39.224Z,100.00
2019-01-19T21:34:08.835Z,100.00
2019-01-19T21:36:38.531Z,100.00
2019-01-19T21:39:09.407Z,100.00
2019-01-19T21:41:39.088Z,100.00
2019-01-19T21:44:08.767Z,100.00
2019-01-19T21:46:38.390Z,100.00
2019-01-19T21:49:08.075Z,100.00
2019-01-19T21:51:37.742Z,100.00
2019-01-19T21:54:07.421Z,100.00
2019-01-19T21:56:37.106Z,100.00
2019-01-19T21:59:06.779Z,100.00
2019-01-19T22:01:36.417Z,100.00
2019-01-19T22:04:06.138Z,100.00
2019-01-19T22:06:35.777Z,100.00
2019-01-19T22:09:07.667Z,100.00
2019-01-19T22:11:37.385Z,100.00
2019-01-19T22:14:07.089Z,100.00
2019-01-19T22:16:36.762Z,100.00
2019-01-19T22:19:06.743Z,100.00
2019-01-19T22:21:36.361Z,100.00
2019-01-19T22:24:06.047Z,100.00
2019-01-19T22:26:36.154Z,100.00
2019-01-19T22:29:08.670Z,100.00
2019-01-19T22:31:38.466Z,100.00
2019-01-19T22:34:08.116Z,100.00
2019-01-19T22:36:37.817Z,100.00
2019-01-19T22:39:08.850Z,100.00
2019-01-19T22:41:38.548Z,100.00
2019-01-19T22:44:08.213Z,100.00
2019-01-19T22:46:37.854Z,100.00
2019-01-19T22:49:07.545Z,100.00
2019-01-19T22:51:38.208Z,100.00
2019-01-19T22:54:07.961Z,100.00
2019-01-19T22:56:37.643Z,100.00
2019-01-19T22:59:07.362Z,100.00
2019-01-19T23:01:41.007Z,100.00
2019-01-19T23:04:10.708Z,100.00
2019-01-19T23:06:40.350Z,100.00
2019-01-19T23:09:11.982Z,100.00
2019-01-19T23:11:41.875Z,100.00
2019-01-19T23:14:12.546Z,100.00
2019-01-19T23:16:42.417Z,100.00
2019-01-19T23:19:12.166Z,100.00
2019-01-19T23:21:41.839Z,100.00
2019-01-19T23:24:11.507Z,100.00
2019-01-19T23:26:41.427Z,100.00
2019-01-19T23:29:11.111Z,100.00
2019-01-19T23:31:40.743Z,100.00
2019-01-19T23:34:10.468Z,100.00
2019-01-19T23:36:40.193Z,100.00
2019-01-19T23:39:11.220Z,100.00
2019-01-19T23:41:40.863Z,100.00
2019-01-19T23:44:10.558Z,100.00
2019-01-19T23:46:40.197Z,100.00
2019-01-19T23:49:09.918Z,100.00
2019-01-19T23:51:39.536Z,100.00
2019-01-19T23:54:09.313Z,100.00
2019-01-19T23:56:38.974Z,100.00
2019-01-19T23:59:08.616Z,100.00
